首页
METAR-TAF:

METAR-TAF

机场 :

不来梅机场

不来梅, 德国

纬度: 53-03N, 经度: 008-48E, 海拔: 3米

当前天气观测

该预报发布于17分钟前的20:20 UTC
风速6节,风向东转东北
温度 14°C
湿度 67%
气压 1019 hPa
能见度10公里或以上
1500米以下无云,无积雨云

METAR: EDDW 202020Z 06006KT CAVOK 14/08 Q1019 NOSIG

时间: 22:37 (20:37 UTC)

预报

该预报发布于3小时和37分钟前的17:00 UTC
预报有效从20日的 18点(UTC)到 21日的 18点(UTC)
风速5节,风向东转东北
能见度10公里或以上
1500米以下无云,无积雨云

TAF: EDDW 201700Z 2018/2118 06005KT CAVOK

超过4000个机场的气象观测和天气预报(METAR&TAF报告)。

可查询的气象台以黄色和红色小点在地图上表示。

将鼠标移到小点上方,可查看气象台名称。

然后点击查看天气观测和预报。

如需切换地图:点击带黑十字的绿色按钮放大地图;点击带横线的绿色按钮缩小地图;或者点击绿色箭头查看邻近地区的地图。


METAR-TAF: